Time;durP1;ratioP1;P1;durP2;ratioP2;P2;SDS_P1;SDS_P2;PMS_P1;PMS_P2;Temp;Humidity;BMP_temperature;BMP_pressure;BME280_temperature;BME280_humidity;BME280_pressure;Samples;Min_cycle;Max_cycle;Signal;HPM_P1;HPM_P2
2023/01/02 00:00:26;;;;;;;5.80;3.17;;;;;;;11.57;67.01;100923.00;4262957;33;33936;-82
2023/01/02 00:02:54;;;;;;;6.43;3.47;;;;;;;11.52;66.94;100915.22;4241582;33;33660;-83
2023/01/02 00:05:22;;;;;;;4.82;4.40;;;;;;;11.65;66.23;100922.78;4239125;33;33933;-82
2023/01/02 00:07:50;;;;;;;2.47;2.28;;;;;;;11.70;66.19;100915.59;4239708;33;32885;-83
2023/01/02 00:10:17;;;;;;;5.87;3.55;;;;;;;11.66;66.51;100916.59;4253301;33;31919;-82
2023/01/02 00:12:45;;;;;;;2.80;2.10;;;;;;;11.62;66.53;100921.09;4244874;33;33209;-82
2023/01/02 00:15:12;;;;;;;1.85;1.75;;;;;;;11.69;66.27;100913.84;4266179;33;33125;-83
2023/01/02 00:17:40;;;;;;;4.43;2.40;;;;;;;11.37;66.83;100910.38;4266486;33;34358;-82
2023/01/02 00:20:08;;;;;;;3.15;2.80;;;;;;;11.34;67.56;100910.47;4254222;33;32950;-83
2023/01/02 00:22:36;;;;;;;1.85;1.67;;;;;;;11.31;67.71;100907.94;4251139;33;32770;-83
2023/01/02 00:25:04;;;;;;;3.62;1.77;;;;;;;11.30;67.88;100908.84;4252920;33;33612;-83
2023/01/02 00:27:33;;;;;;;3.62;2.22;;;;;;;11.30;68.06;100903.56;4254515;33;32315;-83
2023/01/02 00:30:01;;;;;;;2.78;2.55;;;;;;;11.15;68.77;100902.19;4253453;33;31012;-83
2023/01/02 00:32:29;;;;;;;4.03;2.50;;;;;;;11.21;68.58;100904.69;4242076;33;32542;-81
2023/01/02 00:34:56;;;;;;;1.00;1.00;;;;;;;11.11;69.10;100910.25;4253433;33;32659;-82
2023/01/02 00:37:24;;;;;;;3.28;2.97;;;;;;;11.23;68.68;100907.28;4256569;33;33541;-82
2023/01/02 00:39:52;;;;;;;8.50;4.32;;;;;;;11.21;68.79;100914.41;4256157;33;33824;-82
2023/01/02 00:42:19;;;;;;;0.82;0.82;;;;;;;11.16;69.06;100917.16;4252598;33;33924;-82
2023/01/02 00:44:47;;;;;;;2.83;2.62;;;;;;;11.37;68.31;100910.38;4251673;33;32612;-82
2023/01/02 00:47:15;;;;;;;23.30;4.43;;;;;;;11.32;68.36;100916.72;4254055;33;34377;-83
2023/01/02 00:49:44;;;;;;;3.78;3.45;;;;;;;11.42;67.72;100908.47;4264708;33;33851;-83
2023/01/02 00:52:12;;;;;;;4.43;2.37;;;;;;;11.34;67.72;100915.75;4266255;33;33344;-83
2023/01/02 00:54:39;;;;;;;2.42;2.30;;;;;;;11.34;67.75;100921.03;4250760;33;32625;-83
2023/01/02 00:57:07;;;;;;;2.53;2.35;;;;;;;11.20;68.44;100926.75;4244558;33;36027;-81
2023/01/02 00:59:34;;;;;;;3.45;1.85;;;;;;;11.37;67.87;100918.31;4237237;33;32817;-82
2023/01/02 01:02:02;;;;;;;2.45;2.28;;;;;;;11.38;67.42;100921.81;4265347;33;34741;-82
2023/01/02 01:04:34;;;;;;;3.62;3.42;;;;;;;11.41;67.31;100917.31;4254029;33;33830;-82
2023/01/02 01:07:02;;;;;;;3.03;2.75;;;;;;;11.58;65.31;100910.66;4254362;33;32209;-82
2023/01/02 01:09:30;;;;;;;5.57;2.75;;;;;;;11.44;65.54;100908.41;4253730;33;32986;-82
2023/01/02 01:11:57;;;;;;;3.22;2.83;;;;;;;11.21;66.09;100909.97;4263037;33;34615;-82
2023/01/02 01:14:30;;;;;;;3.03;2.70;;;;;;;11.14;66.09;100913.69;4252974;33;34575;-82
2023/01/02 01:16:57;;;;;;;3.00;1.98;;;;;;;11.32;63.45;100912.28;4249614;33;32256;-81
2023/01/02 01:19:34;;;;;;;3.17;2.80;;;;;;;10.92;62.41;100912.53;4230183;33;32546;-82
2023/01/02 01:22:02;;;;;;;5.78;3.28;;;;;;;11.00;61.16;100916.72;4252433;33;33658;-82
2023/01/02 01:24:30;;;;;;;3.35;3.15;;;;;;;10.60;61.61;100922.22;4262897;33;34843;-82
2023/01/02 01:26:57;;;;;;;3.05;2.22;;;;;;;10.43;61.45;100922.63;4257582;33;32972;-81
2023/01/02 01:29:25;;;;;;;8.88;1.42;;;;;;;10.36;61.54;100925.47;4266729;33;32876;-82
2023/01/02 01:31:52;;;;;;;1.75;1.65;;;;;;;9.95;62.25;100922.88;4251954;33;34407;-82
2023/01/02 01:34:20;;;;;;;5.35;3.25;;;;;;;9.83;62.76;100922.31;4244288;33;34691;-81
2023/01/02 01:36:48;;;;;;;1.10;1.05;;;;;;;9.80;62.87;100917.97;4252763;33;33807;-82
2023/01/02 01:39:15;;;;;;;2.37;2.17;;;;;;;9.80;62.99;100909.19;4265157;33;33371;-82
2023/01/02 01:41:43;;;;;;;3.83;3.53;;;;;;;9.80;63.15;100907.41;4266886;33;34488;-81
2023/01/02 01:44:48;;;;;;;4.82;3.55;;;;;;;9.77;63.56;100888.13;4248338;33;32865;-82
2023/01/02 01:47:18;;;;;;;2.87;2.70;;;;;;;9.88;63.19;100887.00;4265425;33;34144;-82
2023/01/02 01:49:48;;;;;;;3.45;1.92;;;;;;;10.00;64.20;100883.19;4253041;33;33129;-82
2023/01/02 01:52:20;;;;;;;7.75;2.95;;;;;;;10.10;65.50;100873.28;4253797;33;34144;-81
2023/01/02 01:54:57;;;;;;;3.53;3.20;;;;;;;10.04;66.34;100878.72;4252837;33;34883;-81
2023/01/02 01:57:31;;;;;;;3.42;3.17;;;;;;;10.08;68.33;100873.31;4266247;33;33711;-81
2023/01/02 02:00:00;;;;;;;14.57;4.62;;;;;;;10.18;67.53;100866.03;4253086;33;31948;-82
2023/01/02 02:02:28;;;;;;;10.30;2.50;;;;;;;10.12;66.49;100864.44;4264159;33;32913;-81
2023/01/02 02:04:59;;;;;;;4.57;3.67;;;;;;;10.00;67.90;100865.59;4256068;33;33353;-81
2023/01/02 02:07:26;;;;;;;2.83;2.58;;;;;;;10.23;68.12;100857.09;4254398;33;33264;-81
2023/01/02 02:10:00;;;;;;;2.83;2.58;;;;;;;10.24;67.99;100866.78;4272293;33;34657;-81
2023/01/02 02:12:28;;;;;;;5.82;3.40;;;;;;;10.40;67.97;100862.00;4254121;33;33741;-81
2023/01/02 02:14:55;;;;;;;6.07;3.22;;;;;;;10.21;68.71;100855.41;4254493;33;33400;-81
2023/01/02 02:17:35;;;;;;;3.80;3.53;;;;;;;10.22;69.00;100857.16;4241617;33;33857;-81
2023/01/02 02:20:08;;;;;;;5.70;3.87;;;;;;;10.23;69.91;100853.59;4264054;33;33860;-81
2023/01/02 02:23:06;;;;;;;3.22;2.90;;;;;;;10.25;69.87;100857.97;4254198;33;34052;-82
2023/01/02 02:25:47;;;;;;;3.62;3.33;;;;;;;10.33;70.08;100852.47;4251077;33;33577;-82
2023/01/02 02:28:33;;;;;;;7.55;5.47;;;;;;;10.41;69.55;100842.59;4269528;33;32919;-82
2023/01/02 02:31:10;;;;;;;8.02;2.85;;;;;;;10.29;70.80;100840.25;4263546;33;33954;-81
2023/01/02 02:33:56;;;;;;;3.58;3.28;;;;;;;10.37;70.41;100834.78;4264803;33;33482;-81
2023/01/02 02:36:32;;;;;;;1.27;1.27;;;;;;;10.36;70.85;100833.06;4255019;33;32766;-82
2023/01/02 02:39:24;;;;;;;7.55;3.60;;;;;;;10.27;71.67;100835.94;4254770;33;33380;-82
2023/01/02 02:42:07;;;;;;;5.65;3.95;;;;;;;10.11;72.15;100840.69;4266357;33;33694;-81
2023/01/02 02:44:46;;;;;;;1.75;1.65;;;;;;;10.20;72.00;100841.31;4253145;33;33841;-82
2023/01/02 02:47:21;;;;;;;2.97;2.62;;;;;;;10.43;71.08;100845.19;4260274;33;34784;-82
2023/01/02 02:49:57;;;;;;;1.90;1.80;;;;;;;10.27;71.65;100836.81;4260504;33;32484;-82
2023/01/02 02:52:32;;;;;;;2.30;2.12;;;;;;;10.20;72.37;100843.09;4265816;33;32966;-81
2023/01/02 02:55:14;;;;;;;8.75;2.28;;;;;;;10.25;72.41;100838.59;4252406;33;33091;-82
2023/01/02 02:57:43;;;;;;;3.00;2.80;;;;;;;10.37;72.00;100848.00;4267174;33;33289;-81
2023/01/02 03:00:14;;;;;;;4.60;4.12;;;;;;;10.28;72.48;100843.81;4252074;33;32332;-82
2023/01/02 03:02:41;;;;;;;5.37;4.57;;;;;;;10.35;72.30;100842.78;4265272;33;33950;-81
2023/01/02 03:05:12;;;;;;;4.12;3.83;;;;;;;10.35;72.34;100832.22;4253166;33;33814;-81
2023/01/02 03:08:18;;;;;;;3.05;2.80;;;;;;;10.38;72.41;100832.09;4251233;33;33224;-81
2023/01/02 03:10:50;;;;;;;2.95;2.60;;;;;;;10.12;73.72;100829.25;4233663;33;32833;-81
2023/01/02 03:13:24;;;;;;;2.60;2.25;;;;;;;10.69;71.36;100818.09;4263516;33;32711;-82
2023/01/02 03:15:56;;;;;;;6.20;5.07;;;;;;;10.72;71.24;100821.47;4254710;33;33389;-81
2023/01/02 03:18:49;;;;;;;3.90;3.60;;;;;;;10.27;73.29;100826.25;4265123;33;34751;-82
2023/01/02 03:21:31;;;;;;;2.90;2.70;;;;;;;10.56;72.36;100822.84;4238783;33;33285;-82
2023/01/02 03:24:03;;;;;;;8.02;3.90;;;;;;;10.51;72.51;100822.09;4254714;33;33979;-82
2023/01/02 03:26:31;;;;;;;;;;;;;;;10.61;72.46;100830.63;4244218;33;34798;-82
2023/01/02 03:29:14;;;;;;;3.17;2.95;;;;;;;10.58;72.40;100833.34;4250855;33;33360;-82
2023/01/02 03:31:46;;;;;;;2.85;2.65;;;;;;;10.89;71.42;100807.81;4252800;33;32986;-82
2023/01/02 03:34:17;;;;;;;3.53;3.23;;;;;;;10.80;71.69;100816.00;4252501;33;33321;-82
2023/01/02 03:36:47;;;;;;;5.22;4.62;;;;;;;10.37;73.70;100818.97;4252635;33;33975;-81
2023/01/02 03:39:19;;;;;;;3.08;2.83;;;;;;;10.38;73.39;100818.91;4253976;33;33108;-82
2023/01/02 03:42:26;;;;;;;3.55;3.35;;;;;;;10.57;72.99;100821.06;4245119;33;32875;-82
2023/01/02 03:45:02;;;;;;;4.45;3.53;;;;;;;10.61;72.64;100822.72;4240171;33;34378;-82
2023/01/02 03:47:45;;;;;;;4.78;3.60;;;;;;;10.75;72.14;100825.84;4255227;33;33634;-82
2023/01/02 03:50:18;;;;;;;4.12;3.83;;;;;;;10.58;73.16;100830.69;4265526;33;34243;-81
2023/01/02 03:52:46;;;;;;;6.60;3.70;;;;;;;10.47;73.72;100826.59;4268856;33;32387;-81
2023/01/02 03:55:14;;;;;;;3.62;3.35;;;;;;;10.43;74.04;100832.84;4264180;33;34715;-81
2023/01/02 03:58:08;;;;;;;3.60;3.35;;;;;;;10.50;73.57;100834.44;4265716;33;33939;-81
2023/01/02 04:00:41;;;;;;;3.17;3.00;;;;;;;10.36;73.71;100828.66;4251464;33;32769;-81
2023/01/02 04:03:16;;;;;;;5.45;3.35;;;;;;;10.41;73.94;100837.31;4254734;33;32181;-81
2023/01/02 04:05:48;;;;;;;1.92;1.83;;;;;;;10.33;74.61;100834.00;4269394;33;34604;-81
2023/01/02 04:08:22;;;;;;;1.50;1.45;;;;;;;10.48;73.98;100832.72;4252057;33;35245;-82
2023/01/02 04:10:51;;;;;;;1.83;1.70;;;;;;;10.95;72.23;100828.75;4252589;33;33231;-82
2023/01/02 04:13:34;;;;;;;2.25;2.15;;;;;;;10.89;71.91;100822.81;4264856;33;33607;-82
2023/01/02 04:16:03;;;;;;;7.03;3.47;;;;;;;10.83;72.39;100825.62;4252513;33;34761;-83
2023/01/02 04:18:34;;;;;;;7.40;3.67;;;;;;;10.77;72.28;100829.28;4252734;33;34561;-83
2023/01/02 04:21:10;;;;;;;7.15;4.28;;;;;;;10.67;72.66;100827.81;4254219;33;32601;-83
2023/01/02 04:23:45;;;;;;;3.25;3.05;;;;;;;10.68;72.78;100834.81;4252202;33;33407;-82
2023/01/02 04:26:21;;;;;;;3.55;3.15;;;;;;;10.50;73.08;100821.22;4251190;33;32831;-82
2023/01/02 04:28:49;;;;;;;5.95;3.90;;;;;;;10.56;73.11;100830.75;4252467;33;33403;-83
2023/01/02 04:31:32;;;;;;;2.20;2.10;;;;;;;10.71;72.65;100845.31;4253889;33;33360;-83
2023/01/02 04:34:01;;;;;;;11.38;5.87;;;;;;;10.70;72.25;100843.59;4268279;33;34369;-82
2023/01/02 04:36:28;;;;;;;5.53;2.60;;;;;;;10.62;72.79;100842.91;4249045;33;33403;-82
2023/01/02 04:38:56;;;;;;;7.30;4.95;;;;;;;10.35;73.30;100850.69;4264437;33;33685;-82
2023/01/02 04:41:27;;;;;;;2.97;2.55;;;;;;;10.47;73.18;100845.06;4256948;33;34428;-82
2023/01/02 04:43:55;;;;;;;4.43;4.03;;;;;;;10.53;72.79;100854.59;4266642;33;32375;-82
2023/01/02 04:46:25;;;;;;;16.17;4.82;;;;;;;10.68;72.40;100846.28;4253607;33;32975;-82
2023/01/02 04:48:53;;;;;;;3.28;2.58;;;;;;;10.98;70.95;100843.69;4253715;33;33720;-82
2023/01/02 04:51:21;;;;;;;4.22;3.33;;;;;;;10.59;72.45;100854.44;4250990;33;34201;-82
2023/01/02 04:53:53;;;;;;;8.80;4.97;;;;;;;10.66;72.03;100842.78;4267314;33;32751;-81
2023/01/02 04:56:21;;;;;;;3.92;3.62;;;;;;;10.17;73.52;100845.84;4252744;33;32818;-81
2023/01/02 04:58:49;;;;;;;2.70;2.47;;;;;;;10.03;74.19;100846.19;4254367;33;33879;-81
2023/01/02 05:01:19;;;;;;;4.22;2.05;;;;;;;10.14;74.40;100848.56;4240965;33;32932;-81
2023/01/02 05:03:48;;;;;;;7.20;4.72;;;;;;;10.20;73.92;100858.94;4266454;33;33686;-82
2023/01/02 05:06:16;;;;;;;3.30;3.08;;;;;;;10.00;74.55;100854.16;4265880;33;33893;-81
2023/01/02 05:08:44;;;;;;;7.03;4.25;;;;;;;10.23;73.85;100856.25;4252120;33;33021;-82
2023/01/02 05:11:17;;;;;;;6.28;2.25;;;;;;;10.48;72.69;100846.78;4249136;33;34131;-82
2023/01/02 05:13:44;;;;;;;2.00;1.90;;;;;;;10.33;72.42;100844.56;4247814;33;31266;-82
2023/01/02 05:16:12;;;;;;;3.53;3.22;;;;;;;10.28;73.06;100846.47;4253032;33;32772;-82
2023/01/02 05:18:39;;;;;;;3.03;2.83;;;;;;;10.08;74.20;100849.56;4250997;33;34713;-81
2023/01/02 05:23:59;;;;;;;3.87;3.12;;;;;;;10.12;74.04;100856.50;4265715;33;32491;-81
2023/01/02 05:26:29;;;;;;;8.63;3.20;;;;;;;10.23;73.63;100845.69;4250823;33;33535;-81
2023/01/02 05:28:57;;;;;;;4.18;3.55;;;;;;;10.40;72.70;100835.59;4252180;33;32624;-81
2023/01/02 05:31:26;;;;;;;2.90;2.70;;;;;;;10.70;71.67;100843.59;4248981;33;34140;-81
2023/01/02 05:33:55;;;;;;;3.05;2.10;;;;;;;10.68;71.19;100840.09;4251430;33;35192;-81
2023/01/02 05:36:24;;;;;;;12.20;3.10;;;;;;;10.39;72.14;100843.53;4252673;33;32990;-81
2023/01/02 05:38:52;;;;;;;4.47;4.07;;;;;;;10.37;72.57;100843.59;4253291;33;32722;-81
2023/01/02 05:41:21;;;;;;;3.83;3.60;;;;;;;10.41;72.46;100841.75;4251895;33;33609;-81
2023/01/02 05:43:48;;;;;;;3.53;2.55;;;;;;;10.09;73.18;100843.37;4251934;33;34413;-82
2023/01/02 05:46:17;;;;;;;16.40;2.55;;;;;;;9.71;74.54;100845.19;4253559;33;32236;-82
2023/01/02 05:48:45;;;;;;;2.42;2.22;;;;;;;10.21;73.21;100839.59;4252672;33;33655;-81
2023/01/02 05:51:15;;;;;;;7.20;3.15;;;;;;;10.20;72.92;100835.19;4239876;33;33613;-81
2023/01/02 05:53:43;;;;;;;11.63;4.32;;;;;;;10.10;73.63;100838.97;4253988;33;32342;-82
2023/01/02 05:56:12;;;;;;;4.25;3.95;;;;;;;10.08;73.70;100840.78;4253829;33;34689;-81
2023/01/02 05:58:42;;;;;;;6.75;4.47;;;;;;;10.30;72.05;100842.00;4256624;33;34034;-81
2023/01/02 06:01:10;;;;;;;3.10;2.28;;;;;;;10.62;71.40;100842.91;4265729;33;33860;-81
2023/01/02 06:03:39;;;;;;;2.72;2.53;;;;;;;10.30;71.92;100844.63;4266187;33;33127;-82
2023/01/02 06:06:08;;;;;;;4.85;3.78;;;;;;;10.33;71.96;100843.69;4251830;33;34042;-81
2023/01/02 06:08:36;;;;;;;2.92;2.70;;;;;;;9.92;73.45;100840.28;4253247;33;34005;-82
2023/01/02 06:11:05;;;;;;;3.12;2.92;;;;;;;10.04;73.09;100836.50;4251489;33;34234;-81
2023/01/02 06:13:34;;;;;;;1.87;1.77;;;;;;;10.12;72.53;100842.47;4255749;33;34243;-81
2023/01/02 06:16:03;;;;;;;8.15;2.58;;;;;;;10.07;73.14;100841.72;4254872;33;33031;-81
2023/01/02 06:18:32;;;;;;;1.42;1.37;;;;;;;10.15;72.65;100840.59;4249910;33;33962;-81
2023/01/02 06:21:08;;;;;;;3.80;2.37;;;;;;;10.27;72.25;100839.44;4256158;33;34925;-81
2023/01/02 06:23:36;;;;;;;5.50;3.78;;;;;;;10.41;71.54;100841.75;4264175;33;33615;-81
2023/01/02 06:26:07;;;;;;;3.17;2.97;;;;;;;9.68;73.86;100839.97;4265796;33;33639;-83
2023/01/02 06:28:34;;;;;;;3.33;2.83;;;;;;;9.70;73.67;100840.81;4265245;33;33252;-82
2023/01/02 06:31:10;;;;;;;3.22;3.03;;;;;;;9.82;73.59;100841.41;4255966;33;33970;-81
2023/01/02 06:33:38;;;;;;;1.92;1.85;;;;;;;9.92;72.68;100849.09;4245163;33;33353;-81
2023/01/02 06:36:06;;;;;;;5.10;3.15;;;;;;;10.16;72.21;100842.34;4267520;33;33937;-81
2023/01/02 06:38:34;;;;;;;7.43;3.30;;;;;;;9.76;73.40;100842.44;4266522;33;32863;-82
2023/01/02 06:41:03;;;;;;;3.37;1.05;;;;;;;9.55;74.09;100849.09;4264227;33;34174;-81
2023/01/02 06:43:33;;;;;;;6.03;2.80;;;;;;;9.76;73.85;100847.72;4256469;33;32750;-81
2023/01/02 06:46:03;;;;;;;2.45;2.28;;;;;;;9.83;73.58;100838.75;4254254;33;33510;-80
2023/01/02 06:48:31;;;;;;;4.03;3.65;;;;;;;9.88;73.35;100851.84;4264211;33;33370;-80
2023/01/02 06:50:59;;;;;;;6.78;4.10;;;;;;;9.86;73.24;100849.22;4256090;33;34255;-81
2023/01/02 06:53:27;;;;;;;7.62;3.05;;;;;;;9.95;72.83;100843.72;4253968;33;32001;-82
2023/01/02 06:55:56;;;;;;;2.47;2.12;;;;;;;10.19;72.11;100841.38;4255254;33;33894;-82
2023/01/02 06:58:27;;;;;;;4.10;3.78;;;;;;;9.99;72.79;100852.44;4255923;33;33481;-82
2023/01/02 07:01:00;;;;;;;3.47;2.42;;;;;;;9.95;72.95;100853.41;4256482;33;32873;-82
2023/01/02 07:03:28;;;;;;;2.60;2.37;;;;;;;10.11;72.28;100852.16;4254462;33;33458;-81
2023/01/02 07:06:03;;;;;;;2.37;2.28;;;;;;;10.27;71.62;100857.06;4255391;33;34334;-82
2023/01/02 07:08:31;;;;;;;2.80;2.60;;;;;;;10.21;71.50;100865.97;4256586;33;34158;-82
2023/01/02 07:11:13;;;;;;;4.30;1.73;;;;;;;10.06;72.55;100858.41;4251293;33;33136;-82
2023/01/02 07:13:42;;;;;;;2.53;1.75;;;;;;;10.05;72.51;100869.88;4264915;33;32880;-81
2023/01/02 07:16:12;;;;;;;2.83;2.50;;;;;;;10.30;71.35;100870.16;4252795;33;33499;-81
2023/01/02 07:18:40;;;;;;;1.87;1.77;;;;;;;10.06;72.42;100871.63;4266364;33;34670;-82
2023/01/02 07:21:09;;;;;;;6.28;2.95;;;;;;;10.05;72.18;100867.25;4262631;33;34897;-81
2023/01/02 07:23:36;;;;;;;3.45;3.15;;;;;;;10.35;71.42;100866.53;4243986;33;33206;-81
2023/01/02 07:26:05;;;;;;;1.27;1.27;;;;;;;10.27;71.71;100871.13;4252108;33;33154;-81
2023/01/02 07:28:34;;;;;;;2.08;1.98;;;;;;;10.27;71.65;100876.41;4254235;33;33412;-81
2023/01/02 07:31:04;;;;;;;3.40;1.50;;;;;;;10.38;71.36;100874.34;4253710;33;33339;-81
2023/01/02 07:33:32;;;;;;;5.25;4.12;;;;;;;10.11;72.08;100878.53;4256041;33;32119;-81
2023/01/02 07:36:01;;;;;;;1.02;1.02;;;;;;;10.21;72.01;100873.91;4254041;33;34408;-81
2023/01/02 07:38:29;;;;;;;1.12;1.12;;;;;;;10.44;70.95;100874.22;4253918;33;33724;-81
2023/01/02 07:40:56;;;;;;;2.83;2.62;;;;;;;10.33;71.78;100875.38;4241024;33;33269;-81
2023/01/02 07:43:25;;;;;;;4.65;4.15;;;;;;;10.29;71.92;100873.72;4266189;33;33337;-81
2023/01/02 07:45:52;;;;;;;5.28;1.70;;;;;;;10.19;71.98;100870.41;4256004;33;33882;-81
2023/01/02 07:48:20;;;;;;;2.42;2.22;;;;;;;10.18;71.94;100871.31;4254417;33;33146;-81
2023/01/02 07:50:47;;;;;;;2.87;2.50;;;;;;;10.20;72.16;100864.22;4254404;33;34738;-81
2023/01/02 07:53:15;;;;;;;3.37;3.08;;;;;;;10.06;72.28;100871.63;4253785;33;33395;-82
2023/01/02 07:55:42;;;;;;;2.45;2.25;;;;;;;9.76;73.41;100876.72;4252868;33;32382;-82
2023/01/02 07:58:10;;;;;;;3.50;3.22;;;;;;;9.80;73.85;100881.03;4252744;33;33216;-82
2023/01/02 08:00:38;;;;;;;7.45;2.75;;;;;;;10.20;72.04;100870.38;4252770;33;32800;-83
2023/01/02 08:03:05;;;;;;;2.58;2.30;;;;;;;10.33;71.79;100870.09;4253107;33;32467;-83
2023/01/02 08:05:34;;;;;;;4.25;3.87;;;;;;;10.15;72.37;100876.66;4242695;33;33814;-82
2023/01/02 08:08:01;;;;;;;1.90;1.80;;;;;;;10.28;71.86;100869.34;4254799;33;34384;-82
2023/01/02 08:10:30;;;;;;;1.95;1.55;;;;;;;10.47;71.08;100867.97;4254528;33;34822;-82
2023/01/02 08:12:57;;;;;;;8.23;1.77;;;;;;;9.87;73.41;100865.91;4253290;33;32462;-84
2023/01/02 08:15:25;;;;;;;3.25;2.95;;;;;;;9.91;73.71;100868.44;4253967;33;33181;-81
2023/01/02 08:17:55;;;;;;;3.83;1.62;;;;;;;10.03;73.21;100867.28;4243998;33;32962;-81
2023/01/02 08:20:23;;;;;;;3.70;2.85;;;;;;;9.62;74.99;100868.25;4255295;33;34809;-81
2023/01/02 08:22:51;;;;;;;4.57;2.97;;;;;;;10.31;72.11;100862.22;4241799;33;32267;-81
2023/01/02 08:25:19;;;;;;;7.18;4.30;;;;;;;10.40;72.16;100867.28;4254008;33;34040;-81
2023/01/02 08:27:46;;;;;;;3.42;3.22;;;;;;;10.56;71.32;100869.50;4255762;33;33068;-82
2023/01/02 08:30:14;;;;;;;2.78;2.58;;;;;;;10.11;72.63;100864.44;4266816;33;34186;-81
2023/01/02 08:32:42;;;;;;;3.83;3.50;;;;;;;9.86;74.02;100867.69;4255721;33;34553;-82
2023/01/02 08:35:09;;;;;;;3.60;2.67;;;;;;;10.11;72.89;100872.38;4253201;33;33166;-81
2023/01/02 08:37:37;;;;;;;6.22;3.58;;;;;;;9.95;74.08;100869.25;4266702;33;34243;-81
2023/01/02 08:40:05;;;;;;;10.63;3.78;;;;;;;10.21;72.82;100868.63;4261497;33;33002;-81
2023/01/02 08:42:32;;;;;;;10.27;3.62;;;;;;;9.74;74.25;100868.84;4251545;33;32458;-81
2023/01/02 08:45:00;;;;;;;6.07;4.72;;;;;;;10.07;73.28;100873.38;4254565;33;33816;-82
2023/01/02 08:47:28;;;;;;;19.00;4.40;;;;;;;9.45;75.46;100890.59;4263026;33;33400;-81
2023/01/02 08:49:56;;;;;;;5.80;3.58;;;;;;;9.98;74.59;100880.59;4263385;33;34147;-80
2023/01/02 08:52:24;;;;;;;5.87;3.20;;;;;;;10.13;73.50;100881.13;4252464;33;32794;-81
2023/01/02 08:54:51;;;;;;;12.23;3.92;;;;;;;10.15;73.33;100876.66;4236903;33;33015;-81
2023/01/02 08:57:20;;;;;;;15.27;3.58;;;;;;;10.22;72.95;100878.25;4250446;33;32714;-82
2023/01/02 08:59:47;;;;;;;5.35;3.55;;;;;;;10.24;73.06;100881.75;4253271;33;34049;-83
2023/01/02 09:02:15;;;;;;;3.22;3.03;;;;;;;10.23;73.53;100893.19;4250186;33;31900;-83
2023/01/02 09:04:43;;;;;;;5.87;2.37;;;;;;;10.43;72.71;100883.00;4249678;33;31721;-83
2023/01/02 09:07:10;;;;;;;6.18;5.18;;;;;;;10.06;73.88;100884.81;4239351;33;32995;-83
2023/01/02 09:09:39;;;;;;;2.75;2.53;;;;;;;10.34;73.35;100880.59;4252489;33;33227;-83
2023/01/02 09:12:07;;;;;;;4.70;4.30;;;;;;;10.35;72.73;100879.72;4244573;33;33000;-83
2023/01/02 09:14:34;;;;;;;4.22;3.92;;;;;;;10.20;73.87;100880.91;4249564;33;33838;-82
2023/01/02 09:17:03;;;;;;;5.20;3.03;;;;;;;10.18;73.90;100877.47;4252474;33;32749;-83
2023/01/02 09:19:31;;;;;;;5.12;4.05;;;;;;;10.59;71.99;100877.34;4253121;33;33436;-84
2023/01/02 09:22:00;;;;;;;4.00;3.60;;;;;;;10.42;72.71;100868.09;4252191;33;34349;-84
2023/01/02 09:24:28;;;;;;;3.55;2.65;;;;;;;10.73;72.05;100867.28;4225626;33;32631;-83
2023/01/02 09:26:55;;;;;;;3.35;3.10;;;;;;;10.84;71.25;100872.28;4229941;33;33855;-83
2023/01/02 09:29:23;;;;;;;3.97;3.10;;;;;;;10.72;72.01;100873.47;4242054;33;33927;-83
2023/01/02 09:31:51;;;;;;;6.50;1.83;;;;;;;11.03;70.61;100874.34;4242931;33;33441;-83
2023/01/02 09:34:19;;;;;;;6.12;4.12;;;;;;;10.50;71.80;100868.75;4229843;33;33317;-83
2023/01/02 09:36:46;;;;;;;6.12;3.87;;;;;;;10.38;72.80;100862.94;4252389;33;34200;-83
2023/01/02 09:39:14;;;;;;;7.65;3.28;;;;;;;10.58;72.42;100859.75;4238871;33;33273;-83
2023/01/02 09:41:47;;;;;;;5.18;1.55;;;;;;;10.53;72.28;100854.59;4242998;33;33819;-83
2023/01/02 09:44:39;;;;;;;6.35;2.62;;;;;;;10.20;73.52;100862.44;4231216;33;33951;-83
2023/01/02 09:47:09;;;;;;;5.60;3.70;;;;;;;10.32;72.98;100842.84;4242832;33;33111;-83
2023/01/02 09:49:47;;;;;;;3.17;2.10;;;;;;;10.32;73.27;100849.91;4254342;33;31896;-83
2023/01/02 09:52:29;;;;;;;4.62;1.85;;;;;;;10.58;72.30;100841.28;4253359;33;32819;-83
2023/01/02 09:54:57;;;;;;;7.95;2.95;;;;;;;10.39;72.88;100844.41;4240137;33;32585;-83
2023/01/02 09:57:27;;;;;;;9.23;4.18;;;;;;;10.46;72.97;100840.69;4242428;33;34742;-83
2023/01/02 10:00:08;;;;;;;19.83;4.25;;;;;;;10.26;73.66;100829.81;4256451;33;33780;-83
2023/01/02 10:02:49;;;;;;;4.20;3.87;;;;;;;10.17;73.73;100835.28;4244626;33;32221;-83
2023/01/02 10:05:28;;;;;;;6.07;3.50;;;;;;;10.49;72.19;100823.87;4255871;33;34043;-83
2023/01/02 10:08:20;;;;;;;17.75;3.45;;;;;;;10.20;73.47;100828.12;4251213;33;34729;-83
2023/01/02 10:11:08;;;;;;;7.00;4.28;;;;;;;10.21;74.00;100818.47;4255489;33;33158;-83
2023/01/02 10:13:56;;;;;;;3.95;2.87;;;;;;;10.07;74.60;100820.59;4254685;33;32268;-83
2023/01/02 10:16:47;;;;;;;5.57;3.50;;;;;;;10.30;73.14;100825.28;4244012;33;34331;-83
2023/01/02 10:19:25;;;;;;;5.85;2.92;;;;;;;10.13;73.94;100825.72;4243172;33;31737;-83
2023/01/02 10:21:55;;;;;;;3.37;2.45;;;;;;;10.06;74.24;100818.84;4256243;33;32744;-83
2023/01/02 10:24:52;;;;;;;2.70;2.50;;;;;;;10.40;73.46;100811.84;4242037;33;33553;-83
2023/01/02 10:27:25;;;;;;;3.60;3.35;;;;;;;10.26;73.64;100813.97;4256661;33;33741;-83
2023/01/02 10:30:08;;;;;;;6.03;3.47;;;;;;;10.28;74.06;100813.91;4255747;33;33759;-83
2023/01/02 10:32:37;;;;;;;2.58;2.47;;;;;;;10.65;72.34;100800.59;4243148;33;33392;-83
2023/01/02 10:35:04;;;;;;;3.30;2.65;;;;;;;10.37;73.55;100801.34;4244102;33;33313;-87
2023/01/02 10:37:33;;;;;;;8.68;4.75;;;;;;;10.36;73.72;100801.41;4254270;33;33315;-84
2023/01/02 10:40:03;;;;;;;5.80;5.12;;;;;;;10.57;73.59;100794.66;4243988;33;33097;-83
2023/01/02 10:42:32;;;;;;;4.22;3.90;;;;;;;10.93;71.74;100793.59;4232645;33;33447;-84
2023/01/02 10:45:00;;;;;;;3.83;3.62;;;;;;;10.44;73.72;100799.37;4257124;33;31557;-85
2023/01/02 10:47:34;;;;;;;4.18;3.00;;;;;;;10.93;72.09;100783.03;4257212;33;33426;-84
2023/01/02 10:50:05;;;;;;;4.43;3.10;;;;;;;11.23;71.48;100775.09;4245827;33;32996;-85
2023/01/02 10:52:38;;;;;;;3.80;3.12;;;;;;;11.09;71.92;100764.06;4233477;33;31230;-85
2023/01/02 10:55:06;;;;;;;2.85;2.65;;;;;;;10.89;72.43;100772.59;4254654;33;33758;-85
2023/01/02 10:57:39;;;;;;;2.47;1.77;;;;;;;10.77;72.88;100765.87;4236229;33;33335;-84
2023/01/02 11:00:24;;;;;;;4.65;2.83;;;;;;;11.18;71.70;100755.84;4256182;33;33675;-85
2023/01/02 11:03:13;;;;;;;9.43;2.17;;;;;;;10.87;72.58;100762.09;4247987;33;33105;-85
2023/01/02 11:05:50;;;;;;;2.22;2.08;;;;;;;10.69;73.08;100762.63;4256947;33;32765;-85
2023/01/02 11:08:20;;;;;;;2.42;2.30;;;;;;;10.94;72.62;100760.13;4236904;33;32685;-85
2023/01/02 11:10:49;;;;;;;4.57;1.98;;;;;;;10.95;72.66;100754.78;4245419;33;34178;-85
2023/01/02 11:13:19;;;;;;;2.95;2.78;;;;;;;11.05;72.41;100754.50;4233392;33;34503;-85
2023/01/02 11:16:01;;;;;;;3.67;3.42;;;;;;;11.12;72.28;100756.06;4246451;33;33374;-85
2023/01/02 11:18:33;;;;;;;2.78;2.58;;;;;;;11.20;72.18;100749.63;4260713;33;33900;-86
2023/01/02 11:21:03;;;;;;;13.23;5.45;;;;;;;11.25;72.01;100741.53;4263466;33;33368;-85
2023/01/02 11:23:37;;;;;;;4.97;4.57;;;;;;;11.78;70.18;100737.16;4238180;33;33180;-85
2023/01/02 11:26:10;;;;;;;5.25;2.83;;;;;;;12.05;69.37;100740.66;4247022;33;32107;-85
2023/01/02 11:28:40;;;;;;;3.45;3.15;;;;;;;12.04;69.09;100738.94;4259452;33;33950;-85
2023/01/02 11:31:09;;;;;;;2.72;2.37;;;;;;;11.79;70.11;100732.72;4260591;33;32489;-85
2023/01/02 11:33:37;;;;;;;4.65;3.33;;;;;;;11.60;70.37;100739.53;4251431;33;32709;-85
2023/01/02 11:36:13;;;;;;;2.30;2.15;;;;;;;11.41;71.30;100732.19;4262685;33;33325;-84
2023/01/02 11:38:52;;;;;;;2.87;2.62;;;;;;;11.65;70.57;100727.03;4264686;33;34704;-85
2023/01/02 11:43:47;;;;;;;1.95;1.83;;;;;;;11.85;70.52;100715.81;4250372;33;33205;-85
2023/01/02 11:44:49;;;;;;;3.15;2.97;;;;;;;12.12;69.29;100716.62;4265085;33;33064;-84
2023/01/02 11:47:28;;;;;;;3.42;3.05;;;;;;;11.88;69.96;100715.69;4249657;33;32483;-84
2023/01/02 11:49:57;;;;;;;6.87;2.70;;;;;;;11.77;70.32;100708.06;4259562;33;33614;-84